createdAt,value
2023-02-18T00:00:23.105Z,27.70
2023-02-18T00:03:28.872Z,29.90
2023-02-18T00:06:38.846Z,30.90
2023-02-18T00:09:54.790Z,31.20
2023-02-18T00:13:01.440Z,30.90
2023-02-18T00:16:14.321Z,32.60
2023-02-18T00:19:24.404Z,32.40
2023-02-18T00:22:30.319Z,32.60
2023-02-18T00:25:34.611Z,33.40
2023-02-18T00:28:42.918Z,32.40
2023-02-18T00:31:48.665Z,32.20
2023-02-18T00:34:52.519Z,31.40
2023-02-18T00:37:56.639Z,31.30
2023-02-18T00:41:02.056Z,29.40
2023-02-18T00:44:07.750Z,33.60
2023-02-18T00:47:12.737Z,34.00
2023-02-18T00:50:18.460Z,34.00
2023-02-18T00:53:23.842Z,33.10
2023-02-18T00:56:29.092Z,32.30
2023-02-18T00:59:32.636Z,38.10
2023-02-18T01:02:39.009Z,34.40
2023-02-18T01:05:42.321Z,35.00
2023-02-18T01:08:49.773Z,36.00
2023-02-18T01:11:52.108Z,38.00
2023-02-18T01:14:59.227Z,35.70
2023-02-18T01:18:03.736Z,30.10
2023-02-18T01:21:10.623Z,36.50
2023-02-18T01:24:14.882Z,36.10
2023-02-18T01:27:19.228Z,33.20
2023-02-18T01:30:23.788Z,34.50
2023-02-18T01:33:28.628Z,36.50
2023-02-18T01:36:34.560Z,33.40
2023-02-18T01:39:40.794Z,32.50
2023-02-18T01:42:43.890Z,33.00
2023-02-18T01:46:10.150Z,35.40
2023-02-18T01:49:20.599Z,33.40
2023-02-18T01:52:27.480Z,35.80
2023-02-18T01:55:31.796Z,33.80
2023-02-18T01:58:38.821Z,33.80
2023-02-18T02:01:46.289Z,32.40
2023-02-18T02:04:52.292Z,29.60
2023-02-18T02:07:56.931Z,32.30
2023-02-18T02:11:20.245Z,31.60
2023-02-18T02:15:01.677Z,29.60
2023-02-18T02:18:31.119Z,28.90
2023-02-18T02:22:04.861Z,31.00
2023-02-18T02:25:38.288Z,28.40
2023-02-18T02:28:59.577Z,27.50
2023-02-18T02:32:35.122Z,28.80
2023-02-18T02:35:54.179Z,29.10
2023-02-18T02:39:21.115Z,29.50
2023-02-18T02:42:49.574Z,29.10
2023-02-18T02:46:19.514Z,24.80
2023-02-18T02:49:41.576Z,25.70
2023-02-18T02:52:57.306Z,26.10
2023-02-18T02:56:00.800Z,29.20
2023-02-18T02:59:08.086Z,26.90
2023-02-18T03:03:06.455Z,26.80
2023-02-18T03:06:34.306Z,28.40
2023-02-18T03:09:54.631Z,26.40
2023-02-18T03:13:25.829Z,28.90
2023-02-18T03:16:51.658Z,28.80
2023-02-18T03:20:37.337Z,27.50
2023-02-18T03:23:49.203Z,26.30
2023-02-18T03:27:04.311Z,29.80
2023-02-18T03:30:17.618Z,28.60
2023-02-18T03:34:03.085Z,28.30
2023-02-18T03:37:07.293Z,28.90
2023-02-18T03:40:15.793Z,27.00
2023-02-18T03:43:19.386Z,29.10
2023-02-18T03:46:23.027Z,28.30
2023-02-18T03:49:26.773Z,27.40
2023-02-18T03:52:29.711Z,27.90
2023-02-18T03:58:56.082Z,27.90
2023-02-18T04:01:59.533Z,25.50
2023-02-18T04:05:05.137Z,26.10
2023-02-18T04:08:08.549Z,23.60
2023-02-18T04:11:14.959Z,26.80
2023-02-18T04:14:18.356Z,23.10
2023-02-18T04:17:26.718Z,22.50
2023-02-18T04:20:31.698Z,25.10
2023-02-18T04:23:36.030Z,23.70
2023-02-18T04:26:40.003Z,22.60
2023-02-18T04:29:48.154Z,23.80
2023-02-18T04:32:52.486Z,23.80
2023-02-18T04:35:56.573Z,21.80
2023-02-18T04:39:03.230Z,22.30
2023-02-18T04:42:09.955Z,21.40
2023-02-18T04:45:13.875Z,20.80
2023-02-18T04:48:16.170Z,21.90
2023-02-18T04:51:20.874Z,21.20
2023-02-18T04:54:28.352Z,20.20
2023-02-18T04:57:36.398Z,20.10
2023-02-18T05:00:39.404Z,19.60
2023-02-18T05:03:47.118Z,20.00
2023-02-18T05:06:55.411Z,20.00
2023-02-18T05:10:00.145Z,20.20
2023-02-18T05:13:03.551Z,18.70
2023-02-18T05:16:12.875Z,20.50
2023-02-18T05:19:19.150Z,19.00
2023-02-18T05:22:27.319Z,19.70
2023-02-18T05:25:31.123Z,19.30
2023-02-18T05:28:36.737Z,20.20
2023-02-18T05:31:41.810Z,21.00
2023-02-18T05:34:45.240Z,20.80
2023-02-18T05:37:51.897Z,17.90
2023-02-18T05:40:59.082Z,17.90
2023-02-18T05:44:21.784Z,17.80
2023-02-18T05:47:28.570Z,16.60
2023-02-18T05:50:33.002Z,15.40
2023-02-18T05:53:38.800Z,15.60
2023-02-18T05:56:43.168Z,14.80
2023-02-18T05:59:48.392Z,14.90
2023-02-18T06:02:54.265Z,14.30
2023-02-18T06:05:59.565Z,13.20
2023-02-18T06:09:07.395Z,12.50
2023-02-18T06:12:13.762Z,13.30
2023-02-18T06:15:22.545Z,12.30
2023-02-18T06:18:29.295Z,12.50
2023-02-18T06:21:32.410Z,12.10
2023-02-18T06:24:43.076Z,10.40
2023-02-18T06:27:49.661Z,11.40
2023-02-18T06:30:59.474Z,9.60
2023-02-18T06:34:03.077Z,10.20
2023-02-18T06:37:10.203Z,10.60
2023-02-18T06:40:15.230Z,9.70
2023-02-18T06:43:27.886Z,8.50
2023-02-18T06:46:33.394Z,8.10
2023-02-18T06:49:38.815Z,8.20
2023-02-18T07:55:53.046Z,2.60
2023-02-18T07:58:56.717Z,2.60
2023-02-18T08:02:01.657Z,2.50
2023-02-18T08:05:08.140Z,2.50
2023-02-18T08:08:23.297Z,2.30
2023-02-18T08:11:29.302Z,2.80
2023-02-18T08:14:34.715Z,3.30
2023-02-18T08:17:37.727Z,3.40
2023-02-18T08:20:44.390Z,2.60
2023-02-18T08:24:02.428Z,2.00
2023-02-18T08:27:08.293Z,2.60
2023-02-18T08:30:14.692Z,2.60
2023-02-18T08:33:22.498Z,2.60
2023-02-18T08:36:27.891Z,2.90
2023-02-18T08:39:58.544Z,2.50
2023-02-18T08:43:06.533Z,3.10
2023-02-18T08:46:16.077Z,2.30
2023-02-18T08:52:32.504Z,4.80
2023-02-18T08:55:42.079Z,4.50
2023-02-18T08:58:46.791Z,3.60
2023-02-18T09:01:52.682Z,3.70
2023-02-18T09:04:56.143Z,3.60
2023-02-18T09:08:08.852Z,3.50
2023-02-18T09:11:35.807Z,3.00
2023-02-18T09:14:59.121Z,3.20
2023-02-18T09:18:08.420Z,4.20
2023-02-18T09:21:15.597Z,2.70
2023-02-18T09:24:24.622Z,2.40
2023-02-18T09:27:31.470Z,3.20
2023-02-18T09:30:37.711Z,3.40
2023-02-18T09:33:51.720Z,2.40
2023-02-18T09:37:09.340Z,3.50
2023-02-18T09:40:28.674Z,3.40
2023-02-18T09:47:21.327Z,2.80
2023-02-18T09:50:28.790Z,2.60
2023-02-18T09:53:33.273Z,2.80
2023-02-18T09:56:43.908Z,2.60
2023-02-18T09:59:58.717Z,2.40
2023-02-18T10:03:13.352Z,3.10
2023-02-18T10:06:30.413Z,6.80
2023-02-18T10:12:51.392Z,3.90
2023-02-18T10:15:55.734Z,3.80
2023-02-18T10:19:03.888Z,2.80
2023-02-18T10:22:19.734Z,2.70
2023-02-18T10:25:24.639Z,1.90
2023-02-18T10:28:29.087Z,1.60
2023-02-18T10:31:44.236Z,2.20
2023-02-18T10:35:02.828Z,4.10
2023-02-18T10:38:37.638Z,2.60
2023-02-18T10:42:15.474Z,2.70
2023-02-18T10:45:37.929Z,2.30
2023-02-18T10:49:15.371Z,2.50
2023-02-18T10:52:23.409Z,1.90
2023-02-18T10:55:49.635Z,1.50
2023-02-18T10:59:25.375Z,2.20
2023-02-18T11:02:40.222Z,2.90
2023-02-18T11:05:54.989Z,2.40
2023-02-18T11:09:03.346Z,2.30
2023-02-18T11:12:17.258Z,2.40
2023-02-18T11:15:31.517Z,2.40
2023-02-18T11:19:06.257Z,3.10
2023-02-18T11:22:28.676Z,2.50
2023-02-18T11:25:36.922Z,2.10
2023-02-18T11:28:48.404Z,1.70
2023-02-18T11:31:57.514Z,2.50
2023-02-18T11:35:05.526Z,2.90
2023-02-18T11:38:45.491Z,2.20
2023-02-18T11:42:04.166Z,2.40
2023-02-18T11:45:33.373Z,2.20
2023-02-18T11:48:37.360Z,2.10
2023-02-18T11:51:50.168Z,2.30
2023-02-18T11:55:16.176Z,2.20
2023-02-18T11:58:23.858Z,1.90
2023-02-18T12:01:45.112Z,2.20
2023-02-18T12:05:21.250Z,2.80
2023-02-18T12:08:35.848Z,2.20
2023-02-18T12:11:52.709Z,2.50
2023-02-18T12:15:03.787Z,2.60
2023-02-18T12:18:31.530Z,3.00
2023-02-18T12:22:17.835Z,2.20
2023-02-18T12:25:49.236Z,2.10
2023-02-18T12:29:19.424Z,1.90
2023-02-18T12:32:56.808Z,2.80
2023-02-18T12:36:39.233Z,3.30
2023-02-18T12:40:25.141Z,2.30
2023-02-18T12:43:49.427Z,2.10
2023-02-18T12:47:44.430Z,2.40
2023-02-18T12:51:05.575Z,1.90
2023-02-18T12:54:34.853Z,2.80
2023-02-18T12:58:25.278Z,2.10
2023-02-18T13:01:52.620Z,2.40
2023-02-18T13:05:24.723Z,2.50
2023-02-18T13:08:53.384Z,2.40
2023-02-18T13:12:25.292Z,2.50
2023-02-18T13:15:56.312Z,2.10
2023-02-18T13:19:41.338Z,2.30
2023-02-18T13:22:49.996Z,2.90
2023-02-18T13:26:05.401Z,2.10
2023-02-18T13:29:26.790Z,2.60
2023-02-18T13:32:49.016Z,3.30
2023-02-18T13:36:27.228Z,3.90
2023-02-18T13:39:37.689Z,3.20
2023-02-18T13:42:50.111Z,3.70
2023-02-18T13:46:27.950Z,1.80
2023-02-18T13:49:36.087Z,2.00
2023-02-18T13:52:40.029Z,2.50
2023-02-18T13:56:12.200Z,2.60
2023-02-18T13:59:32.253Z,2.50
2023-02-18T14:06:26.239Z,3.00
2023-02-18T14:09:38.706Z,2.60
2023-02-18T14:13:07.311Z,3.00
2023-02-18T14:16:15.614Z,2.60
2023-02-18T14:19:28.745Z,3.20
2023-02-18T14:22:48.382Z,3.40
2023-02-18T14:26:23.364Z,3.90
2023-02-18T14:29:33.408Z,3.00
2023-02-18T14:32:40.650Z,3.50
2023-02-18T14:36:12.907Z,2.90
2023-02-18T14:39:35.854Z,3.10
2023-02-18T14:43:01.359Z,2.40
2023-02-18T14:46:10.132Z,3.20
2023-02-18T14:49:35.458Z,3.30
2023-02-18T14:52:52.857Z,3.20
2023-02-18T14:56:04.197Z,3.70
2023-02-18T14:59:08.232Z,3.20
2023-02-18T15:02:27.576Z,5.50
2023-02-18T15:05:37.962Z,3.00
2023-02-18T15:08:43.099Z,3.50
2023-02-18T15:12:01.723Z,3.30
2023-02-18T15:15:13.458Z,3.60
2023-02-18T15:18:37.161Z,4.40
2023-02-18T15:21:45.324Z,3.90
2023-02-18T15:24:53.132Z,4.50
2023-02-18T15:27:56.533Z,4.00
2023-02-18T15:31:02.727Z,3.70
2023-02-18T15:34:28.537Z,3.20
2023-02-18T15:37:33.684Z,3.80
2023-02-18T15:40:40.141Z,3.70
2023-02-18T15:44:05.589Z,4.20
2023-02-18T15:47:51.483Z,4.50
2023-02-18T15:51:02.795Z,3.70
2023-02-18T15:54:22.378Z,3.40
2023-02-18T15:57:30.422Z,2.90
2023-02-18T16:00:50.089Z,3.10
2023-02-18T16:07:04.924Z,3.50
2023-02-18T16:10:41.049Z,4.10
2023-02-18T16:13:52.330Z,3.40
2023-02-18T16:17:16.701Z,5.50
2023-02-18T16:20:34.950Z,3.90
2023-02-18T16:23:59.584Z,5.00
2023-02-18T16:27:08.330Z,4.10
2023-02-18T16:30:17.409Z,4.10
2023-02-18T16:33:19.851Z,4.70
2023-02-18T16:36:25.095Z,3.90
2023-02-18T16:39:54.515Z,4.70
2023-02-18T16:43:00.482Z,4.00
2023-02-18T16:46:20.051Z,5.00
2023-02-18T16:49:30.533Z,4.10
2023-02-18T16:52:32.925Z,3.80
2023-02-18T16:55:35.809Z,4.40
2023-02-18T16:58:39.171Z,4.30
2023-02-18T17:01:44.342Z,4.40
2023-02-18T17:04:48.492Z,5.10
2023-02-18T17:07:59.234Z,4.80
2023-02-18T17:11:20.598Z,4.70
2023-02-18T17:14:26.710Z,4.30
2023-02-18T17:17:30.730Z,4.50
2023-02-18T17:20:50.287Z,3.40
2023-02-18T17:23:55.072Z,4.20
2023-02-18T17:26:59.060Z,4.00
2023-02-18T17:30:01.540Z,4.00
2023-02-18T17:33:14.500Z,3.90
2023-02-18T17:36:17.057Z,4.00
2023-02-18T17:39:21.093Z,4.20
2023-02-18T17:42:23.160Z,4.90
2023-02-18T17:45:40.100Z,3.90
2023-02-18T17:48:46.471Z,4.20
2023-02-18T17:51:50.229Z,4.10
2023-02-18T17:54:53.393Z,3.90
2023-02-18T17:57:57.701Z,4.00
2023-02-18T18:01:02.746Z,4.70
2023-02-18T18:04:14.697Z,3.50
2023-02-18T18:07:18.090Z,3.80
2023-02-18T18:10:36.662Z,4.10
2023-02-18T18:13:40.381Z,4.20
2023-02-18T18:16:44.284Z,3.40
2023-02-18T18:19:47.171Z,4.40
2023-02-18T18:22:51.994Z,3.90
2023-02-18T18:25:59.237Z,3.50
2023-02-18T18:32:06.380Z,3.90
2023-02-18T18:35:34.688Z,4.30
2023-02-18T18:38:43.600Z,4.60
2023-02-18T18:41:47.278Z,3.90
2023-02-18T18:44:50.163Z,5.10
2023-02-18T18:47:54.294Z,4.70
2023-02-18T18:50:59.279Z,4.10
2023-02-18T18:54:03.244Z,3.70
2023-02-18T18:57:06.637Z,4.10
2023-02-18T19:00:10.315Z,3.40
2023-02-18T19:03:15.023Z,2.70
2023-02-18T19:06:21.255Z,4.30
2023-02-18T19:09:31.926Z,3.40
2023-02-18T19:12:36.567Z,3.40
2023-02-18T19:15:45.238Z,3.90
2023-02-18T19:18:55.414Z,3.80
2023-02-18T19:22:04.594Z,3.60
2023-02-18T19:25:10.288Z,3.30
2023-02-18T19:28:14.292Z,3.30
2023-02-18T19:31:17.346Z,3.60
2023-02-18T19:34:25.102Z,3.20
2023-02-18T19:37:46.136Z,3.20
2023-02-18T19:41:50.492Z,3.10
2023-02-18T19:45:01.230Z,2.30
2023-02-18T19:48:11.478Z,2.50
2023-02-18T19:51:17.612Z,3.30
2023-02-18T20:06:22.578Z,4.10
2023-02-18T20:09:27.052Z,4.00
2023-02-18T20:12:35.226Z,4.20
2023-02-18T20:18:43.767Z,2.70
2023-02-18T20:21:49.804Z,3.50
2023-02-18T20:24:53.436Z,3.00
2023-02-18T20:28:02.194Z,3.20
2023-02-18T20:31:12.784Z,2.90
2023-02-18T20:34:17.709Z,3.50
2023-02-18T20:37:20.762Z,3.40
2023-02-18T20:40:27.120Z,3.40
2023-02-18T20:43:32.610Z,3.60
2023-02-18T20:46:39.086Z,3.60
2023-02-18T20:49:42.310Z,4.20
2023-02-18T20:52:46.809Z,3.70
2023-02-18T20:55:50.700Z,3.80
2023-02-18T20:58:55.239Z,3.50
2023-02-18T21:01:57.272Z,3.80
2023-02-18T21:05:00.489Z,3.70
2023-02-18T21:08:05.405Z,3.80
2023-02-18T21:11:11.464Z,4.70
2023-02-18T21:14:14.263Z,3.40
2023-02-18T21:17:16.734Z,3.80
2023-02-18T21:20:19.961Z,3.40
2023-02-18T21:23:25.396Z,4.60
2023-02-18T21:26:28.779Z,3.50
2023-02-18T21:29:36.856Z,3.70
2023-02-18T21:32:40.497Z,4.40
2023-02-18T21:35:42.717Z,4.60
2023-02-18T21:38:51.494Z,3.50
2023-02-18T21:41:56.735Z,4.10
2023-02-18T21:45:00.898Z,3.70
2023-02-18T21:48:59.558Z,3.50
2023-02-18T21:52:08.256Z,3.90
2023-02-18T21:55:11.290Z,3.70
2023-02-18T21:58:16.395Z,4.00
2023-02-18T22:01:19.336Z,3.20
2023-02-18T22:04:23.350Z,4.00
2023-02-18T22:07:29.582Z,3.90
2023-02-18T22:10:33.359Z,4.10
2023-02-18T22:13:40.583Z,13.10
2023-02-18T22:16:43.070Z,5.50
2023-02-18T22:19:49.567Z,4.60
2023-02-18T22:22:54.863Z,4.60
2023-02-18T22:26:07.337Z,4.60
2023-02-18T22:29:11.440Z,3.80
2023-02-18T22:32:17.137Z,3.80
2023-02-18T22:35:19.919Z,4.10
2023-02-18T22:38:23.317Z,4.10
2023-02-18T22:41:30.746Z,3.40
2023-02-18T22:44:34.618Z,3.30
2023-02-18T22:47:42.421Z,4.20
2023-02-18T22:50:44.528Z,3.00
2023-02-18T22:53:55.480Z,3.70
2023-02-18T22:56:59.767Z,3.40
2023-02-18T23:00:03.499Z,4.00
2023-02-18T23:03:06.602Z,3.30
2023-02-18T23:06:10.679Z,3.80
2023-02-18T23:09:20.924Z,3.30
2023-02-18T23:12:24.170Z,2.70
2023-02-18T23:15:27.631Z,3.20
2023-02-18T23:18:31.780Z,3.40
2023-02-18T23:21:37.630Z,3.30
2023-02-18T23:24:43.364Z,3.90
2023-02-18T23:27:45.677Z,2.90
2023-02-18T23:30:48.210Z,3.40
2023-02-18T23:33:56.953Z,3.00
2023-02-18T23:40:02.748Z,3.20
2023-02-18T23:43:06.972Z,3.20
2023-02-18T23:46:09.604Z,4.00
2023-02-18T23:49:15.179Z,3.70
2023-02-18T23:52:21.602Z,2.40
2023-02-18T23:55:26.279Z,3.90
2023-02-18T23:58:29.911Z,3.10
